createdAt,value
2018-05-26T00:00:03.313Z,17.95
2018-05-26T00:01:13.341Z,17.97
2018-05-26T00:02:23.085Z,17.94
2018-05-26T00:03:33.139Z,17.9
2018-05-26T00:04:42.616Z,17.79
2018-05-26T00:05:52.360Z,17.87
2018-05-26T00:07:01.840Z,17.86
2018-05-26T00:08:11.052Z,17.79
2018-05-26T00:09:20.532Z,17.68
2018-05-26T00:10:30.568Z,17.66
2018-05-26T00:11:40.318Z,17.65
2018-05-26T00:12:49.802Z,17.54
2018-05-26T00:13:59.822Z,17.56
2018-05-26T00:15:09.841Z,17.52
2018-05-26T00:16:19.881Z,17.5
2018-05-26T00:17:29.636Z,17.52
2018-05-26T00:18:39.391Z,17.41
2018-05-26T00:19:49.402Z,17.41
2018-05-26T00:20:59.412Z,17.47
2018-05-26T00:22:09.175Z,17.34
2018-05-26T00:23:18.923Z,17.37
2018-05-26T00:24:28.701Z,17.23
2018-05-26T00:25:39.056Z,17.3
2018-05-26T00:26:48.825Z,17.31
2018-05-26T00:27:58.570Z,17.24
2018-05-26T00:29:08.055Z,17.3
2018-05-26T00:30:18.075Z,17.42
2018-05-26T00:31:27.819Z,17.34
2018-05-26T00:32:37.307Z,17.22
2018-05-26T00:33:47.331Z,17.24
2018-05-26T00:34:56.816Z,17.19
2018-05-26T00:36:06.299Z,17.17
2018-05-26T00:37:16.042Z,17.19
2018-05-26T00:38:25.792Z,17.19
2018-05-26T00:39:35.267Z,17.16
2018-05-26T00:40:44.751Z,17.19
2018-05-26T00:41:54.512Z,17.09
2018-05-26T00:43:04.255Z,17.04
2018-05-26T00:44:14.268Z,17.13
2018-05-26T00:45:24.301Z,17.1
2018-05-26T00:46:34.318Z,17.04
2018-05-26T00:47:44.335Z,16.92
2018-05-26T00:48:54.347Z,16.83
2018-05-26T00:50:04.369Z,16.89
2018-05-26T00:51:13.847Z,16.82
2018-05-26T00:52:23.590Z,16.77
2018-05-26T00:53:33.614Z,16.73
2018-05-26T00:54:43.624Z,16.61
2018-05-26T00:55:53.634Z,16.58
2018-05-26T00:57:03.388Z,16.58
2018-05-26T00:58:13.132Z,16.64
2018-05-26T00:59:23.149Z,16.59
2018-05-26T01:00:33.195Z,16.62
2018-05-26T01:01:42.963Z,16.51
2018-05-26T01:02:52.979Z,16.51
2018-05-26T01:04:02.730Z,16.62
2018-05-26T01:05:12.759Z,16.57
2018-05-26T01:06:22.238Z,16.59
2018-05-26T01:07:32.002Z,16.61
2018-05-26T01:08:41.748Z,16.51
2018-05-26T01:09:51.526Z,16.5
2018-05-26T01:11:01.546Z,16.55
2018-05-26T01:12:10.763Z,16.54
2018-05-26T01:13:20.518Z,16.49
2018-05-26T01:14:29.994Z,16.46
2018-05-26T01:15:40.008Z,16.4
2018-05-26T01:16:50.023Z,16.54
2018-05-26T01:18:00.044Z,16.51
2018-05-26T01:19:09.530Z,16.41
2018-05-26T01:20:19.008Z,16.46
2018-05-26T01:21:29.030Z,16.47
2018-05-26T01:22:38.775Z,16.44
2018-05-26T01:23:48.525Z,16.49
2018-05-26T01:24:58.542Z,16.41
2018-05-26T01:26:08.287Z,16.39
2018-05-26T01:27:18.304Z,16.28
2018-05-26T01:28:28.057Z,16.28
2018-05-26T01:29:38.104Z,16.26
2018-05-26T01:30:47.854Z,16.18
2018-05-26T01:31:57.601Z,16.16
2018-05-26T01:33:06.821Z,16.24
2018-05-26T01:34:16.572Z,16.21
2018-05-26T01:35:26.320Z,16.06
2018-05-26T01:36:36.331Z,16.08
2018-05-26T01:37:46.345Z,16.05
2018-05-26T01:38:55.828Z,16
2018-05-26T01:40:05.580Z,15.96
2018-05-26T01:41:15.330Z,16
2018-05-26T01:42:25.352Z,16.02
2018-05-26T01:43:35.095Z,15.94
2018-05-26T01:44:44.841Z,15.96
2018-05-26T01:45:54.600Z,15.88
2018-05-26T01:47:04.357Z,15.9
2018-05-26T01:48:14.372Z,15.87
2018-05-26T01:49:24.128Z,15.8
2018-05-26T01:50:33.611Z,15.8
2018-05-26T01:51:43.364Z,15.85
2018-05-26T01:52:53.383Z,15.78
2018-05-26T01:54:03.400Z,15.81
2018-05-26T01:55:12.878Z,15.8
2018-05-26T01:56:22.367Z,15.81
2018-05-26T01:57:32.123Z,15.91
2018-05-26T01:58:41.879Z,15.84
2018-05-26T01:59:51.623Z,15.88
2018-05-26T02:01:01.371Z,15.94
2018-05-26T02:02:11.217Z,15.85
2018-05-26T02:03:21.238Z,15.94
2018-05-26T02:04:31.268Z,15.88
2018-05-26T02:05:41.300Z,15.94
2018-05-26T02:06:51.053Z,15.91
2018-05-26T02:08:00.850Z,15.85
2018-05-26T02:09:10.606Z,15.8
2018-05-26T02:10:20.105Z,15.9
2018-05-26T02:11:29.855Z,15.84
2018-05-26T02:12:39.597Z,15.83
2018-05-26T02:13:48.810Z,15.73
2018-05-26T02:14:58.824Z,15.7
2018-05-26T02:16:08.574Z,15.75
2018-05-26T02:17:18.584Z,15.73
2018-05-26T02:18:28.603Z,15.76
2018-05-26T02:19:38.357Z,15.75
2018-05-26T02:20:47.888Z,15.67
2018-05-26T02:21:57.368Z,15.7
2018-05-26T02:23:07.378Z,15.67
2018-05-26T02:24:16.863Z,15.78
2018-05-26T02:25:26.876Z,15.75
2018-05-26T02:26:36.617Z,15.73
2018-05-26T02:27:46.625Z,15.73
2018-05-26T02:28:56.644Z,15.67
2018-05-26T02:30:05.868Z,15.67
2018-05-26T02:31:15.924Z,15.69
2018-05-26T02:32:25.676Z,15.69
2018-05-26T02:33:35.438Z,15.67
2018-05-26T02:34:45.453Z,15.65
2018-05-26T02:35:54.946Z,15.57
2018-05-26T02:37:04.428Z,15.47
2018-05-26T02:38:14.238Z,15.47
2018-05-26T02:39:23.991Z,15.55
2018-05-26T02:40:33.739Z,15.54
2018-05-26T02:41:43.759Z,15.55
2018-05-26T02:42:53.519Z,15.45
2018-05-26T02:44:03.275Z,15.5
2018-05-26T02:45:13.300Z,15.5
2018-05-26T02:46:23.324Z,15.47
2018-05-26T02:47:32.803Z,15.62
2018-05-26T02:48:42.553Z,15.63
2018-05-26T02:49:52.574Z,15.47
2018-05-26T02:51:02.326Z,15.6
2018-05-26T02:52:12.072Z,15.59
2018-05-26T02:53:22.093Z,15.57
2018-05-26T02:54:32.124Z,15.6
2018-05-26T02:55:42.160Z,15.51
2018-05-26T02:56:52.189Z,15.65
2018-05-26T02:58:01.935Z,15.5
2018-05-26T02:59:10.880Z,15.47
2018-05-26T03:03:25.145Z,15.45
2018-05-26T03:04:34.902Z,15.45
2018-05-26T03:05:44.655Z,15.36
2018-05-26T03:06:54.668Z,15.45
2018-05-26T03:08:04.426Z,15.44
2018-05-26T03:09:14.497Z,15.33
2018-05-26T03:10:24.511Z,15.43
2018-05-26T03:11:34.304Z,15.43
2018-05-26T03:12:44.055Z,15.36
2018-05-26T03:13:54.066Z,15.43
2018-05-26T03:15:03.809Z,15.3
2018-05-26T03:16:13.830Z,15.44
2018-05-26T03:17:23.319Z,15.35
2018-05-26T03:18:33.064Z,15.3
2018-05-26T03:19:42.815Z,15.32
2018-05-26T03:20:52.835Z,15.29
2018-05-26T03:22:02.853Z,15.26
2018-05-26T03:23:12.622Z,15.36
2018-05-26T03:24:22.635Z,15.32
2018-05-26T03:25:32.375Z,15.19
2018-05-26T03:26:42.439Z,15.19
2018-05-26T03:27:52.455Z,15.29
2018-05-26T03:29:02.472Z,15.22
2018-05-26T03:30:12.505Z,15.27
2018-05-26T03:31:22.260Z,15.25
2018-05-26T03:32:31.751Z,15.23
2018-05-26T03:33:41.779Z,15.23
2018-05-26T03:34:51.521Z,15.19
2018-05-26T03:36:01.529Z,15.22
2018-05-26T03:37:11.281Z,15.19
2018-05-26T03:38:21.299Z,15.15
2018-05-26T03:39:31.314Z,15.27
2018-05-26T03:40:41.346Z,15.26
2018-05-26T03:41:51.094Z,15.26
2018-05-26T03:43:00.879Z,15.22
2018-05-26T03:44:10.358Z,15.19
2018-05-26T03:45:20.105Z,15.18
2018-05-26T03:46:30.128Z,15.23
2018-05-26T03:47:39.869Z,15.26
2018-05-26T03:48:49.880Z,15.25
2018-05-26T03:49:59.885Z,15.17
2018-05-26T03:51:09.628Z,15.23
2018-05-26T03:52:19.669Z,15.19
2018-05-26T03:53:29.417Z,15.15
2018-05-26T03:54:39.428Z,15.19
2018-05-26T03:55:49.440Z,15.17
2018-05-26T03:56:59.451Z,15.22
2018-05-26T03:58:09.501Z,15.14
2018-05-26T03:59:19.210Z,15.18
2018-05-26T04:00:28.955Z,15.19
2018-05-26T04:01:38.967Z,15.18
2018-05-26T04:02:48.450Z,15.18
2018-05-26T04:03:58.466Z,15.25
2018-05-26T04:05:08.228Z,15.22
2018-05-26T04:06:18.237Z,15.22
2018-05-26T04:07:27.987Z,15.29
2018-05-26T04:08:37.471Z,15.18
2018-05-26T04:09:47.215Z,15.23
2018-05-26T04:10:57.241Z,15.17
2018-05-26T04:12:07.007Z,15.27
2018-05-26T04:13:16.753Z,15.22
2018-05-26T04:14:26.228Z,15.19
2018-05-26T04:15:35.980Z,15.3
2018-05-26T04:16:45.729Z,15.27
2018-05-26T04:17:55.747Z,15.3
2018-05-26T04:19:05.759Z,15.39
2018-05-26T04:20:15.503Z,15.3
2018-05-26T04:21:25.515Z,15.26
2018-05-26T04:22:35.529Z,15.32
2018-05-26T04:23:45.278Z,15.36
2018-05-26T04:24:54.752Z,15.26
2018-05-26T04:26:03.967Z,15.3
2018-05-26T04:27:13.990Z,15.3
2018-05-26T04:28:24.116Z,15.3
2018-05-26T04:29:34.126Z,15.44
2018-05-26T04:30:43.879Z,15.43
2018-05-26T04:31:53.890Z,15.45
2018-05-26T04:33:03.906Z,15.37
2018-05-26T04:34:13.399Z,15.43
2018-05-26T04:35:23.015Z,15.43
2018-05-26T04:36:32.948Z,15.43
2018-05-26T04:37:42.698Z,15.44
2018-05-26T04:38:52.439Z,15.48
2018-05-26T04:40:02.202Z,15.43
2018-05-26T04:41:11.961Z,15.48
2018-05-26T04:42:21.710Z,15.45
2018-05-26T04:43:31.466Z,15.47
2018-05-26T04:44:41.495Z,15.57
2018-05-26T04:45:51.241Z,15.51
2018-05-26T04:47:00.724Z,15.5
2018-05-26T04:48:10.469Z,15.51
2018-05-26T04:49:20.212Z,15.48
2018-05-26T04:50:30.226Z,15.52
2018-05-26T04:51:40.238Z,15.59
2018-05-26T04:52:49.992Z,15.6
2018-05-26T04:53:59.748Z,15.65
2018-05-26T04:55:09.228Z,15.66
2018-05-26T04:56:18.711Z,15.8
2018-05-26T04:57:28.725Z,15.75
2018-05-26T04:58:38.743Z,15.85
2018-05-26T04:59:48.270Z,15.84
2018-05-26T05:00:58.018Z,15.7
2018-05-26T05:02:07.495Z,15.83
2018-05-26T05:03:17.240Z,15.78
2018-05-26T05:04:26.455Z,15.73
2018-05-26T05:05:36.219Z,15.81
2018-05-26T05:06:46.322Z,15.8
2018-05-26T05:07:55.543Z,15.81
2018-05-26T05:09:05.560Z,15.87
2018-05-26T05:10:15.042Z,15.91
2018-05-26T05:11:24.521Z,15.91
2018-05-26T05:12:33.731Z,15.88
2018-05-26T05:13:43.741Z,15.94
2018-05-26T05:14:53.821Z,15.99
2018-05-26T05:16:03.841Z,15.94
2018-05-26T05:17:13.861Z,15.91
2018-05-26T05:18:23.872Z,15.99
2018-05-26T05:19:33.619Z,16.03
2018-05-26T05:20:43.634Z,16.1
2018-05-26T05:21:53.391Z,16.05
2018-05-26T05:23:03.404Z,16.06
2018-05-26T05:24:12.886Z,16.05
2018-05-26T05:25:22.916Z,16.1
2018-05-26T05:26:32.939Z,16.03
2018-05-26T05:27:42.428Z,16.08
2018-05-26T05:28:52.438Z,16.12
2018-05-26T05:30:02.179Z,16.06
2018-05-26T05:31:12.193Z,16.09
2018-05-26T05:32:21.957Z,16.1
2018-05-26T05:33:31.721Z,16.08
2018-05-26T05:34:41.467Z,16.06
2018-05-26T05:35:51.483Z,16.06
2018-05-26T05:37:01.235Z,16.08
2018-05-26T05:38:10.718Z,16.06
2018-05-26T05:39:20.465Z,16.05
2018-05-26T05:40:30.489Z,16.17
2018-05-26T05:41:40.531Z,16.08
2018-05-26T05:42:50.279Z,16.12
2018-05-26T05:44:00.064Z,16.03
2018-05-26T05:45:09.817Z,16.02
2018-05-26T05:46:19.560Z,16.16
2018-05-26T05:47:29.037Z,16.06
2018-05-26T05:48:38.520Z,16.17
2018-05-26T05:49:48.589Z,16.17
2018-05-26T05:50:58.106Z,16.18
2018-05-26T05:52:08.113Z,16.16
2018-05-26T05:53:17.870Z,16.21
2018-05-26T05:54:27.934Z,16.29
2018-05-26T05:55:37.950Z,16.25
2018-05-26T05:56:47.974Z,16.25
2018-05-26T05:57:57.456Z,16.37
2018-05-26T05:59:07.312Z,16.4
2018-05-26T06:00:16.529Z,16.49
2018-05-26T06:01:25.738Z,16.49
2018-05-26T06:02:35.752Z,16.57
2018-05-26T06:03:45.545Z,16.58
2018-05-26T06:04:55.556Z,16.54
2018-05-26T06:06:05.575Z,16.55
2018-05-26T06:07:15.058Z,16.61
2018-05-26T06:08:25.074Z,16.64
2018-05-26T06:09:35.098Z,16.51
2018-05-26T06:10:44.848Z,16.5
2018-05-26T06:11:54.596Z,16.51
2018-05-26T06:13:03.817Z,16.58
2018-05-26T06:14:13.849Z,16.59
2018-05-26T06:15:23.950Z,16.73
2018-05-26T06:16:34.079Z,16.79
2018-05-26T06:17:43.829Z,16.65
2018-05-26T06:18:53.847Z,16.72
2018-05-26T06:20:03.322Z,16.74
2018-05-26T06:21:13.073Z,16.68
2018-05-26T06:22:23.082Z,16.76
2018-05-26T06:23:33.106Z,16.86
2018-05-26T06:24:43.119Z,16.84
2018-05-26T06:25:53.136Z,16.91
2018-05-26T06:27:03.151Z,16.87
2018-05-26T06:28:12.900Z,16.92
2018-05-26T06:29:22.924Z,16.82
2018-05-26T06:30:32.947Z,16.86
2018-05-26T06:31:43.067Z,16.97
2018-05-26T06:32:52.941Z,16.94
2018-05-26T06:34:02.691Z,16.89
2018-05-26T06:35:12.719Z,16.97
2018-05-26T06:36:22.463Z,17.02
2018-05-26T06:37:31.945Z,17.05
2018-05-26T06:38:41.979Z,17.1
2018-05-26T06:39:51.751Z,16.99
2018-05-26T06:41:01.767Z,17.07
2018-05-26T06:42:11.533Z,17.09
2018-05-26T06:43:21.018Z,17.07
2018-05-26T06:44:30.784Z,17.24
2018-05-26T06:45:40.536Z,17.22
2018-05-26T06:46:49.750Z,17.19
2018-05-26T06:47:59.499Z,17.22
2018-05-26T06:49:09.528Z,17.23
2018-05-26T06:50:19.556Z,17.27
2018-05-26T06:51:29.705Z,17.38
2018-05-26T06:52:39.449Z,17.19
2018-05-26T06:53:49.468Z,17.28
2018-05-26T06:54:58.955Z,17.38
2018-05-26T06:56:08.456Z,17.44
2018-05-26T06:57:17.938Z,17.52
2018-05-26T06:58:27.968Z,17.53
2018-05-26T06:59:37.717Z,17.63
2018-05-26T07:00:47.468Z,17.66
2018-05-26T07:01:57.220Z,17.78
2018-05-26T07:03:06.975Z,17.78
2018-05-26T07:04:16.736Z,17.87
2018-05-26T07:05:26.494Z,17.87
2018-05-26T07:06:36.252Z,17.8
2018-05-26T07:07:46.264Z,17.86
2018-05-26T07:08:56.021Z,18.03
2018-05-26T07:10:05.508Z,18
2018-05-26T07:11:15.257Z,18.06
2018-05-26T07:12:25.017Z,18.12
2018-05-26T07:13:34.230Z,18.12
2018-05-26T07:14:44.244Z,18.23
2018-05-26T07:15:53.996Z,18.23
2018-05-26T07:17:04.012Z,18.16
2018-05-26T07:18:13.771Z,18.13
2018-05-26T07:19:23.784Z,18.23
2018-05-26T07:20:33.535Z,18.34
2018-05-26T07:21:43.559Z,18.33
2018-05-26T07:22:53.575Z,18.31
2018-05-26T07:24:03.329Z,18.31
2018-05-26T07:25:12.809Z,18.34
2018-05-26T07:26:22.842Z,18.28
2018-05-26T07:27:32.855Z,18.28
2018-05-26T07:28:42.609Z,18.36
2018-05-26T07:29:52.625Z,18.26
2018-05-26T07:31:02.385Z,18.27
2018-05-26T07:32:11.872Z,18.48
2018-05-26T07:33:21.951Z,18.26
2018-05-26T07:34:31.993Z,18.39
2018-05-26T07:35:42.015Z,18.3
2018-05-26T07:36:52.080Z,18.48
2018-05-26T07:38:01.831Z,18.45
2018-05-26T07:39:11.051Z,18.52
2018-05-26T07:40:20.797Z,18.53
2018-05-26T07:41:30.837Z,18.53
2018-05-26T07:42:40.336Z,18.53
2018-05-26T07:43:50.398Z,18.6
2018-05-26T07:45:00.415Z,18.71
2018-05-26T07:46:09.634Z,18.74
2018-05-26T07:47:19.200Z,18.81
2018-05-26T07:48:28.748Z,18.81
2018-05-26T07:49:38.233Z,18.76
2018-05-26T07:50:48.246Z,18.89
2018-05-26T07:51:57.486Z,18.88
2018-05-26T07:53:07.714Z,18.89
2018-05-26T07:54:17.861Z,18.94
2018-05-26T07:55:27.906Z,19.04
2018-05-26T07:56:37.928Z,19.11
2018-05-26T07:57:47.512Z,19.09
2018-05-26T07:58:57.580Z,19.22
2018-05-26T08:00:07.473Z,19.27
2018-05-26T08:01:17.658Z,19.26
2018-05-26T08:02:27.402Z,19.37
2018-05-26T08:03:37.160Z,19.44
2018-05-26T08:04:47.194Z,19.52
2018-05-26T08:05:57.207Z,19.48
2018-05-26T08:07:06.422Z,19.62
2018-05-26T08:08:15.903Z,19.74
2018-05-26T08:09:25.921Z,19.72
2018-05-26T08:10:35.665Z,19.74
2018-05-26T08:11:45.415Z,19.78
2018-05-26T08:12:54.899Z,20.03
2018-05-26T08:14:04.916Z,20.04
2018-05-26T08:15:14.942Z,20.14
2018-05-26T08:16:24.424Z,20.21
2018-05-26T08:17:34.083Z,20.32
2018-05-26T08:18:44.109Z,20.26
2018-05-26T08:19:54.135Z,20.36
2018-05-26T08:21:03.631Z,20.39
2018-05-26T08:22:13.650Z,20.46
2018-05-26T08:23:23.677Z,20.6
2018-05-26T08:24:33.158Z,20.64
2018-05-26T08:25:42.905Z,20.6
2018-05-26T08:26:52.921Z,20.68
2018-05-26T08:28:02.939Z,20.82
2018-05-26T08:29:12.952Z,20.78
2018-05-26T08:30:22.719Z,20.83
2018-05-26T08:31:32.481Z,20.83
2018-05-26T08:32:42.498Z,20.92
2018-05-26T08:33:52.409Z,20.92
2018-05-26T08:35:02.264Z,21.01
2018-05-26T08:36:11.755Z,21.04
2018-05-26T08:37:21.506Z,21.01
2018-05-26T08:38:31.256Z,21.07
2018-05-26T08:39:40.743Z,21.08
2018-05-26T08:40:50.760Z,21.08
2018-05-26T08:42:00.249Z,21.19
2018-05-26T08:43:10.280Z,21.22
2018-05-26T08:44:20.315Z,21.26
2018-05-26T08:45:30.118Z,21.33
2018-05-26T08:46:40.283Z,21.26
2018-05-26T08:47:49.769Z,21.4
2018-05-26T08:48:58.989Z,21.4
2018-05-26T08:50:08.481Z,21.53
2018-05-26T08:51:18.508Z,21.63
2018-05-26T08:52:28.519Z,21.56
2018-05-26T08:53:38.281Z,21.72
2018-05-26T08:54:48.437Z,21.7
2018-05-26T08:55:58.600Z,21.77
2018-05-26T08:57:08.622Z,21.69
2018-05-26T08:58:18.377Z,21.8
2018-05-26T08:59:28.142Z,21.83
2018-05-26T09:00:38.165Z,21.92
2018-05-26T09:01:48.192Z,21.83
2018-05-26T09:02:58.222Z,21.84
2018-05-26T09:04:08.240Z,21.91
2018-05-26T09:05:18.255Z,21.91
2018-05-26T09:06:28.448Z,21.91
2018-05-26T09:07:37.664Z,21.94
2018-05-26T09:08:47.421Z,22.04
2018-05-26T09:09:57.173Z,22.06
2018-05-26T09:11:07.206Z,22.12
2018-05-26T09:12:16.985Z,22.15
2018-05-26T09:13:26.202Z,22.07
2018-05-26T09:14:35.949Z,22.18
2018-05-26T09:15:45.732Z,22.16
2018-05-26T09:16:55.763Z,22.21
2018-05-26T09:18:05.245Z,22.25
2018-05-26T09:19:14.729Z,22.25
2018-05-26T09:20:23.944Z,22.16
2018-05-26T09:21:33.697Z,22.22
2018-05-26T09:22:43.721Z,22.3
2018-05-26T09:23:53.739Z,22.34
2018-05-26T09:25:03.906Z,22.33
2018-05-26T09:26:14.220Z,22.36
2018-05-26T09:27:24.078Z,22.3
2018-05-26T09:28:34.118Z,22.47
2018-05-26T09:29:43.877Z,22.43
2018-05-26T09:30:53.898Z,22.49
2018-05-26T09:32:03.655Z,22.53
2018-05-26T09:33:13.679Z,22.55
2018-05-26T09:34:23.699Z,22.58
2018-05-26T09:35:33.450Z,22.59
2018-05-26T09:36:43.200Z,22.62
2018-05-26T09:37:53.215Z,22.63
2018-05-26T09:39:02.429Z,22.59
2018-05-26T09:40:12.260Z,22.67
2018-05-26T09:41:22.343Z,22.7
2018-05-26T09:42:32.150Z,22.74
2018-05-26T09:43:41.954Z,22.83
2018-05-26T09:44:51.727Z,22.83
2018-05-26T09:46:01.482Z,22.83
2018-05-26T09:47:11.502Z,22.78
2018-05-26T09:48:21.254Z,22.8
2018-05-26T09:49:31.064Z,22.88
2018-05-26T09:50:40.820Z,22.89
2018-05-26T09:51:50.840Z,22.89
2018-05-26T09:53:00.872Z,22.91
2018-05-26T09:54:10.678Z,22.89
2018-05-26T09:55:20.439Z,22.99
2018-05-26T09:56:30.638Z,22.96
2018-05-26T09:57:40.728Z,22.95
2018-05-26T09:58:50.479Z,23.17
2018-05-26T10:00:00.509Z,23.16
2018-05-26T10:01:10.282Z,23.18
2018-05-26T10:02:20.047Z,23.23
2018-05-26T10:03:30.072Z,23.32
2018-05-26T10:04:39.832Z,23.36
2018-05-26T10:05:49.593Z,23.39
2018-05-26T10:06:59.631Z,23.42
2018-05-26T10:08:08.848Z,23.51
2018-05-26T10:09:18.646Z,23.58
2018-05-26T10:10:28.483Z,23.56
2018-05-26T10:11:38.507Z,23.54
2018-05-26T10:12:48.265Z,23.64
2018-05-26T10:13:58.287Z,23.71
2018-05-26T10:15:08.073Z,23.69
2018-05-26T10:16:18.094Z,23.76
2018-05-26T10:17:27.852Z,23.81
2018-05-26T10:18:37.612Z,23.85
2018-05-26T10:19:47.629Z,23.88
2018-05-26T10:20:57.761Z,23.94
2018-05-26T10:22:07.779Z,23.95
2018-05-26T10:23:17.529Z,24
2018-05-26T10:24:27.559Z,23.96
2018-05-26T10:25:37.572Z,24.03
2018-05-26T10:26:47.603Z,24.06
2018-05-26T10:27:57.356Z,24.01
2018-05-26T10:29:06.578Z,23.96
2018-05-26T10:30:16.335Z,24.11
2018-05-26T10:31:26.086Z,24.09
2018-05-26T10:32:35.845Z,24.07
2018-05-26T10:33:45.604Z,24.16
2018-05-26T10:34:55.356Z,24.19
2018-05-26T10:36:05.128Z,24.32
2018-05-26T10:37:14.883Z,24.38
2018-05-26T10:38:24.110Z,24.48
2018-05-26T10:39:34.127Z,24.56
2018-05-26T10:40:44.141Z,24.61
2018-05-26T10:41:53.951Z,24.68
2018-05-26T10:43:03.976Z,24.77
2018-05-26T10:44:14.005Z,24.86
2018-05-26T10:45:23.755Z,24.82
2018-05-26T10:46:33.777Z,24.82
2018-05-26T10:47:43.814Z,24.86
2018-05-26T10:48:53.892Z,24.88
2018-05-26T10:50:03.803Z,24.89
2018-05-26T10:51:13.651Z,24.85
2018-05-26T10:52:23.715Z,24.99
2018-05-26T10:53:33.745Z,25.03
2018-05-26T10:54:43.501Z,24.94
2018-05-26T10:55:53.626Z,25.06
2018-05-26T10:57:03.908Z,25.06
2018-05-26T10:58:13.931Z,25.12
2018-05-26T10:59:23.961Z,25.15
2018-05-26T11:00:33.818Z,25.26
2018-05-26T11:01:43.849Z,25.25
2018-05-26T11:02:53.620Z,25.36
2018-05-26T11:04:03.648Z,25.26
2018-05-26T11:05:13.431Z,25.4
2018-05-26T11:06:23.469Z,25.44
2018-05-26T11:07:32.993Z,25.51
2018-05-26T11:08:42.777Z,25.48
2018-05-26T11:09:52.542Z,25.63
2018-05-26T11:11:02.584Z,25.48
2018-05-26T11:12:12.086Z,25.51
2018-05-26T11:13:21.898Z,25.63
2018-05-26T11:14:31.535Z,25.55
2018-05-26T11:15:41.545Z,25.59
2018-05-26T11:16:51.300Z,25.7
2018-05-26T11:18:02.145Z,25.73
2018-05-26T11:19:12.096Z,25.78
2018-05-26T11:20:21.729Z,25.76
2018-05-26T11:21:31.004Z,25.91
2018-05-26T11:22:41.030Z,25.95
2018-05-26T11:23:50.524Z,25.93
2018-05-26T11:25:00.522Z,26.13
2018-05-26T11:26:09.960Z,26.16
2018-05-26T11:27:20.001Z,26.46
2018-05-26T11:28:29.512Z,26.68
2018-05-26T11:29:39.275Z,27
2018-05-26T11:30:48.537Z,27.35
2018-05-26T11:31:58.107Z,27.75
2018-05-26T11:33:08.134Z,28.31
2018-05-26T11:34:17.895Z,28.78
2018-05-26T11:35:27.922Z,29.2
2018-05-26T11:36:37.413Z,29.69
2018-05-26T11:37:46.904Z,30.26
2018-05-26T11:38:56.396Z,30.78
2018-05-26T11:40:06.485Z,31.39
2018-05-26T11:41:16.240Z,31.63
2018-05-26T11:42:26.002Z,32.11
2018-05-26T11:43:36.119Z,32.57
2018-05-26T11:44:45.705Z,33.08
2018-05-26T11:45:55.203Z,33.47
2018-05-26T11:47:04.696Z,33.79
2018-05-26T11:48:14.186Z,34.29
2018-05-26T11:49:24.218Z,34.6
2018-05-26T11:50:33.980Z,35.04
2018-05-26T11:51:44.028Z,35.27
2018-05-26T11:52:53.791Z,35.59
2018-05-26T11:54:03.552Z,35.93
2018-05-26T11:55:13.319Z,36.08
2018-05-26T11:56:23.346Z,36.29
2018-05-26T11:57:33.383Z,36.76
2018-05-26T11:58:43.412Z,37.04
2018-05-26T11:59:53.455Z,37.31
2018-05-26T12:01:03.218Z,37.57
2018-05-26T12:02:13.059Z,37.72
2018-05-26T12:03:23.092Z,37.73
2018-05-26T12:04:32.853Z,38
2018-05-26T12:05:42.904Z,38.13
2018-05-26T12:06:52.672Z,38.39
2018-05-26T12:08:02.706Z,38.48
2018-05-26T12:09:12.743Z,38.69
2018-05-26T12:10:22.783Z,38.66
2018-05-26T12:11:32.558Z,38.79
2018-05-26T12:12:42.592Z,39.11
2018-05-26T12:13:52.623Z,39.39
2018-05-26T12:15:02.662Z,39.76
2018-05-26T12:16:12.428Z,40.12
2018-05-26T12:17:22.198Z,40.13
2018-05-26T12:18:32.097Z,40.52
2018-05-26T12:19:41.863Z,40.81
2018-05-26T12:20:51.635Z,40.9
2018-05-26T12:22:01.398Z,41.14
2018-05-26T12:23:11.172Z,41.12
2018-05-26T12:24:20.402Z,41.18
2018-05-26T12:25:30.331Z,41.46
2018-05-26T12:26:40.122Z,41.17
2018-05-26T12:27:49.890Z,41.33
2018-05-26T12:28:59.119Z,41.52
2018-05-26T12:30:08.885Z,41.39
2018-05-26T12:31:18.391Z,41.46
2018-05-26T12:32:28.436Z,41.48
2018-05-26T12:33:37.997Z,41.57
2018-05-26T12:34:47.769Z,41.8
2018-05-26T12:35:57.539Z,42.02
2018-05-26T12:37:07.316Z,42.07
2018-05-26T12:38:17.092Z,41.83
2018-05-26T12:39:27.141Z,41.11
2018-05-26T12:40:36.912Z,41.3
2018-05-26T12:41:46.416Z,41.53
2018-05-26T12:42:56.465Z,41.86
2018-05-26T12:44:06.246Z,42
2018-05-26T12:45:16.067Z,42.12
2018-05-26T12:46:25.966Z,42.18
2018-05-26T12:47:35.470Z,41.53
2018-05-26T12:48:45.507Z,41.87
2018-05-26T12:49:55.551Z,42.14
2018-05-26T12:51:05.595Z,42.37
2018-05-26T12:52:15.711Z,42.49
2018-05-26T12:53:25.850Z,42.66
2018-05-26T12:54:35.883Z,42.63
2018-05-26T12:55:45.385Z,42.49
2018-05-26T12:56:55.159Z,40.76
2018-05-26T12:58:04.934Z,40.76
2018-05-26T12:59:14.710Z,41.29
2018-05-26T13:00:24.244Z,41.58
2018-05-26T13:01:34.014Z,41.52
2018-05-26T13:02:44.135Z,41.73
2018-05-26T13:03:54.230Z,41.61
2018-05-26T13:05:04.010Z,41.45
2018-05-26T13:06:13.916Z,41.39
2018-05-26T13:07:23.962Z,41.51
2018-05-26T13:08:33.465Z,41.91
2018-05-26T13:09:43.506Z,42.1
2018-05-26T13:10:53.279Z,42.46
2018-05-26T13:12:03.315Z,42
2018-05-26T13:13:13.087Z,40.88
2018-05-26T13:14:23.127Z,40.04
2018-05-26T13:15:33.176Z,39.83
2018-05-26T13:16:42.948Z,40.42
2018-05-26T13:17:52.732Z,39.94
2018-05-26T13:19:02.487Z,39.37
2018-05-26T13:20:12.260Z,39.51
2018-05-26T13:21:22.049Z,39.52
2018-05-26T13:22:31.821Z,40.01
2018-05-26T13:23:41.857Z,40.49
2018-05-26T13:24:51.897Z,41.08
2018-05-26T13:26:01.400Z,40.98
2018-05-26T13:27:11.173Z,41.51
2018-05-26T13:28:21.218Z,41.65
2018-05-26T13:29:30.724Z,41.29
2018-05-26T13:30:40.824Z,41.41
2018-05-26T13:31:50.878Z,42.05
2018-05-26T13:33:00.658Z,41.41
2018-05-26T13:34:10.448Z,40.2
2018-05-26T13:35:20.704Z,40.51
2018-05-26T13:36:30.281Z,39.97
2018-05-26T13:37:40.064Z,40.02
2018-05-26T13:38:49.845Z,40.69
2018-05-26T13:39:59.619Z,40.85
2018-05-26T13:41:08.862Z,40.32
2018-05-26T13:42:18.905Z,40.61
2018-05-26T13:43:28.677Z,40.99
2018-05-26T13:44:38.720Z,41.08
2018-05-26T13:45:48.492Z,41.8
2018-05-26T13:46:57.998Z,42.29
2018-05-26T13:48:08.048Z,42.86
2018-05-26T13:49:17.862Z,43.27
2018-05-26T13:50:27.646Z,43.72
2018-05-26T13:51:37.506Z,42.9
2018-05-26T13:52:47.485Z,43.09
2018-05-26T13:53:57.675Z,42.22
2018-05-26T13:55:08.041Z,41.44
2018-05-26T13:56:18.230Z,42.21
2018-05-26T13:57:27.466Z,42.55
2018-05-26T13:58:37.515Z,43.03
2018-05-26T13:59:47.019Z,43.32
2018-05-26T14:00:56.787Z,43.63
2018-05-26T14:02:06.576Z,43.61
2018-05-26T14:03:16.350Z,43.69
2018-05-26T14:04:25.853Z,43.76
2018-05-26T14:05:35.638Z,44.1
2018-05-26T14:06:45.145Z,44.19
2018-05-26T14:07:55.188Z,44.1
2018-05-26T14:09:05.230Z,44.5
2018-05-26T14:10:14.742Z,44.84
2018-05-26T14:11:24.774Z,45.18
2018-05-26T14:12:34.827Z,45.39
2018-05-26T14:13:44.870Z,45.73
2018-05-26T14:14:54.955Z,46.04
2018-05-26T14:16:05.004Z,46.3
2018-05-26T14:17:15.179Z,46.69
2018-05-26T14:18:25.169Z,46.92
2018-05-26T14:19:34.688Z,46.43
2018-05-26T14:20:44.725Z,45.36
2018-05-26T14:21:54.495Z,44.29
2018-05-26T14:23:04.566Z,44.7
2018-05-26T14:24:14.439Z,45.01
2018-05-26T14:25:24.217Z,45.14
2018-05-26T14:26:34.004Z,45.39
2018-05-26T14:27:43.777Z,43.97
2018-05-26T14:28:53.546Z,42.77
2018-05-26T14:30:03.319Z,42.06
2018-05-26T14:31:12.825Z,42.65
2018-05-26T14:32:22.862Z,42.4
2018-05-26T14:33:32.642Z,42.62
2018-05-26T14:34:42.418Z,42.94
2018-05-26T14:35:52.471Z,42.02
2018-05-26T14:37:01.978Z,40.78
2018-05-26T14:38:11.485Z,40.92
2018-05-26T14:39:21.259Z,40.16
2018-05-26T14:40:31.041Z,39.85
2018-05-26T14:41:40.815Z,38.79
2018-05-26T14:42:50.868Z,38.75
2018-05-26T14:44:00.650Z,37.83
2018-05-26T14:45:10.425Z,37.94
2018-05-26T14:46:20.198Z,38
2018-05-26T14:47:29.752Z,38.13
2018-05-26T14:48:39.523Z,38.35
2018-05-26T14:49:49.711Z,38.35
2018-05-26T14:50:59.804Z,38.51
2018-05-26T14:52:09.303Z,38.84
2018-05-26T14:53:18.540Z,39.01
2018-05-26T14:54:28.047Z,39.37
2018-05-26T14:55:38.101Z,39.64
2018-05-26T14:56:47.873Z,39.93
2018-05-26T14:57:57.648Z,40.14
2018-05-26T14:59:07.684Z,39.75
2018-05-26T15:00:17.716Z,39.52
2018-05-26T15:01:27.754Z,38.38
2018-05-26T15:02:37.523Z,37.61
2018-05-26T15:03:47.025Z,37.07
2018-05-26T15:04:56.795Z,36.75